Latest Weather Observations for Oenpelli Airport

IDD60801

Issued at 4:35 pm CST Monday 1 September 2014 (issued every 30 minutes, with the page automatically refreshed every 10 minutes)

About weather observations | Map of weather stations | Latest weather observations for NT | Other Formats
Station Details ID: 014310 Name: OENPELLI AIRPORT Lat: -12.33 Lon: 133.01 Height: 7.5 m
Data from the previous 72 hours. | See also: Recent months for locations in Northern Territory
Date/Time
CST
Temp
°C
App
Temp
°C
Dew
Point
Rel
Hum
%
Delta-T
°C
Wind Press
QNH
hPa
Press
MSL
hPa
Rain
since 9 am
mm
Dir
 
Spd
km/h
Gust
km/h
Spd
kts
Gust
kts
01/04:30pm 34.7 30.6 -0.1 11 17.1 SSE 11 19 6 10 1009.8 1009.7 0.0
01/04:00pm 35.2 31.4 -1.0 10 17.6 SSE 9 19 5 10 1009.8 1009.7 0.0
01/03:30pm 34.8 30.1 1.2 12 16.9 SE 15 24 8 13 1009.9 1009.8 0.0
01/03:00pm 34.6 29.4 -0.1 11 17.1 ESE 17 28 9 15 1010.2 1010.1 0.0
01/02:30pm 34.4 30.8 3.1 14 16.2 SSE 11 19 6 10 1010.7 1010.6 0.0
01/02:00pm 34.4 29.5 2.0 13 16.5 E 17 30 9 16 1011.2 1011.1 0.0
01/01:30pm 34.0 29.2 2.8 14 16.0 ESE 17 26 9 14 1011.8 1011.7 0.0
01/01:00pm 33.1 29.1 3.0 15 15.4 SSE 13 24 7 13 1012.2 1012.1 0.0
01/12:30pm 32.5 29.0 3.5 16 14.9 SE 11 22 6 12 1012.9 1012.8 0.0
01/12:00pm 33.0 29.5 5.5 18 14.7 SSE 13 24 7 13 1013.5 1013.4 0.0
01/11:30am 32.2 27.6 5.7 19 14.1 ESE 19 26 10 14 1014.1 1014.0 0.0
01/11:00am 30.6 30.5 12.0 32 10.9 ENE 4 11 2 6 1014.6 1014.5 0.0
01/10:30am 29.4 29.1 12.8 36 9.8 NE 6 13 3 7 1015.1 1015.0 0.0
01/10:00am 27.7 28.7 15.4 47 7.5 SSW 4 7 2 4 1015.6 1015.5 0.0
01/09:30am 26.4 28.1 16.1 53 6.3 SW 2 6 1 3 1015.8 1015.7 0.0
01/09:00am 24.4 26.6 18.3 69 3.8 SW 4 7 2 4 1015.8 1015.7 0.0
01/08:30am 22.6 24.7 19.4 82 2.0 SSW 7 11 4 6 1015.7 1015.6 0.0
01/08:00am 21.0 23.6 20.0 94 0.6 SW 6 9 3 5 1015.5 1015.4 0.0
01/07:30am 18.1 20.3 17.5 96 0.4 SSW 2 6 1 3 1015.2 1015.1 0.0
01/07:00am 16.5 17.9 15.5 94 0.6 S 2 9 1 5 1014.9 1014.8 0.0
01/06:30am 16.3 17.5 14.8 91 0.9 S 2 7 1 4 1014.5 1014.4 0.0
01/06:00am 16.2 17.8 14.9 92 0.7 S 0 0 0 0 1014.2 1014.1 0.0
01/05:30am 16.9 18.3 15.4 91 0.9 S 2 4 1 2 1013.9 1013.8 0.0
01/05:00am 17.4 19.3 15.7 90 1.0 CALM 0 4 0 2 1013.5 1013.4 0.0
01/04:30am 16.9 17.6 14.4 85 1.4 S 4 6 2 3 1013.5 1013.4 0.0
01/04:00am 19.4 21.4 17.0 86 1.5 N 2 4 1 2 1013.3 1013.2 0.0
01/03:30am 19.8 22.0 16.6 82 1.9 CALM 0 4 0 2 1013.3 1013.2 0.0
01/03:00am 20.6 22.3 18.0 85 1.6 N 6 7 3 4 1013.5 1013.4 0.0
01/02:30am 20.6 22.3 17.2 81 2.1 N 4 6 2 3 1013.7 1013.6 0.0
01/02:00am 20.6 21.5 16.2 76 2.6 NNW 6 9 3 5 1013.9 1013.8 0.0
01/01:30am 22.8 24.5 18.6 77 2.6 NE 7 11 4 6 1013.9 1013.8 0.0
01/01:00am 21.5 22.4 16.7 74 2.9 NE 7 11 4 6 1013.8 1013.7 0.0
01/12:30am 19.9 20.9 13.1 65 3.9 CALM 0 2 0 1 1013.8 1013.7 0.0
01/12:00am 21.1 21.5 13.8 63 4.2 N 4 6 2 3 1013.7 1013.6 0.0
 
Date/Time
CST
Temp
°C
App
Temp
°C
Dew
Point
Rel
Hum
%
Delta-T
°C
Wind Press
QNH
hPa
Press
MSL
hPa
Rain
since 9 am
mm
Dir
 
Spd
km/h
Gust
km/h
Spd
kts
Gust
kts
31/11:30pm 21.5 21.4 13.9 62 4.4 NNE 7 9 4 5 1013.6 1013.5 0.0
31/11:00pm 20.5 20.1 12.5 60 4.5 NNE 6 7 3 4 1013.4 1013.3 0.0
31/10:30pm 20.7 21.5 12.4 59 4.7 CALM 0 0 0 0 1013.3 1013.2 0.0
31/10:00pm 21.9 22.2 12.2 54 5.5 NE 2 6 1 3 1013.1 1013.0 0.0
31/09:30pm 22.5 22.4 12.2 52 5.8 N 4 4 2 2 1013.0 1012.9 0.0
31/09:00pm 23.4 23.3 12.1 49 6.4 NNE 4 6 2 3 1012.7 1012.6 0.0
31/08:30pm 24.3 23.7 12.3 47 6.9 NNE 7 9 4 5 1012.2 1012.1 0.0
31/08:00pm 25.0 24.5 11.9 44 7.5 NNE 6 7 3 4 1012.0 1011.9 0.0
31/07:30pm 26.2 25.7 11.9 41 8.2 N 6 13 3 7 1011.3 1011.2 0.0
31/07:00pm 26.6 26.0 10.3 36 9.1 NNW 4 7 2 4 1010.6 1010.5 0.0
31/06:30pm 30.7 28.1 1.1 15 14.5 SE 4 7 2 4 1009.9 1009.8 0.0
31/06:00pm 32.5 29.1 -0.5 12 15.9 ESE 7 15 4 8 1009.6 1009.5 0.0
31/05:30pm 33.5 29.7 -1.0 11 16.6 ESE 9 17 5 9 1009.4 1009.3 0.0
31/05:00pm 33.9 29.9 -2.0 10 17.0 ESE 9 20 5 11 1009.3 1009.2 0.0
31/04:30pm 33.8 29.8 -2.0 10 17.0 E 9 19 5 10 1009.3 1009.2 0.0
31/04:00pm 33.8 29.8 -2.0 10 17.0 SSE 9 19 5 10 1009.3 1009.2 0.0
31/03:30pm 33.6 28.5 -2.2 10 16.9 ESE 15 24 8 13 1009.4 1009.3 0.0
31/03:00pm 33.7 29.0 -2.1 10 17.0 E 13 30 7 16 1009.6 1009.5 0.0
31/02:30pm 34.2 29.9 -1.7 10 17.2 ESE 11 24 6 13 1009.9 1009.8 0.0
31/02:00pm 33.8 29.2 -0.7 11 16.7 E 13 20 7 11 1010.3 1010.2 0.0
31/01:30pm 33.1 28.5 -1.3 11 16.4 E 13 26 7 14 1010.8 1010.7 0.0
31/01:00pm 32.9 27.5 -1.4 11 16.3 E 17 26 9 14 1011.4 1011.3 0.0
31/12:30pm 32.5 26.7 -1.7 11 16.2 ESE 19 32 10 17 1012.1 1012.0 0.0
31/12:00pm 32.5 26.1 -1.7 11 16.1 E 22 33 12 18 1012.7 1012.6 0.0
31/11:30am 31.3 25.1 -0.4 13 15.2 E 22 33 12 18 1013.4 1013.3 0.0
31/11:00am 31.3 26.2 0.6 14 14.9 SE 17 26 9 14 1013.8 1013.7 0.0
31/10:30am 29.3 27.9 8.9 28 11.3 NNE 6 13 3 7 1014.4 1014.3 0.0
31/10:00am 28.9 27.3 8.0 27 11.4 ENE 6 13 3 7 1014.9 1014.8 0.0
31/09:30am 26.3 27.2 14.1 47 7.2 WSW 2 9 1 5 1015.1 1015.0 0.0
31/09:00am 23.5 24.4 16.1 63 4.5 SW 6 7 3 4 1015.1 1015.0 0.0
31/08:30am 20.6 21.8 16.8 79 2.3 SW 6 11 3 6 1014.9 1014.8 0.0
31/08:00am 17.7 19.6 15.7 88 1.2 CALM 0 2 0 1 1014.7 1014.6 0.0
31/07:30am 15.6 17.0 14.3 92 0.7 CALM 0 4 0 2 1014.5 1014.4 0.0
31/07:00am 13.7 14.5 12.4 92 0.7 CALM 0 0 0 0 1014.1 1014.0 0.0
31/06:30am 13.8 14.4 12.0 89 1.0 CALM 0 0 0 0 1013.9 1013.8 0.0
31/06:00am 14.3 15.1 12.7 90 0.9 CALM 0 0 0 0 1013.5 1013.4 0.0
31/05:30am 14.8 15.9 13.5 92 0.7 CALM 0 0 0 0 1013.3 1013.2 0.0
31/05:00am 14.9 16.0 13.6 92 0.7 CALM 0 0 0 0 1013.2 1013.1 0.0
31/04:30am 15.3 16.5 13.8 91 0.8 CALM 0 0 0 0 1013.2 1013.1 0.0
31/04:00am 15.4 16.6 13.8 90 0.9 CALM 0 0 0 0 1013.2 1013.1 0.0
31/03:30am 15.7 16.7 14.2 91 0.9 S 2 4 1 2 1013.2 1013.1 0.0
31/03:00am 16.3 17.4 14.7 90 0.9 SW 2 6 1 3 1013.2 1013.1 0.0
31/02:30am 16.4 17.6 13.9 85 1.4 CALM 0 0 0 0 1013.4 1013.3 0.0
31/02:00am 17.0 18.3 14.1 83 1.7 CALM 0 0 0 0 1013.7 1013.6 0.0
31/01:30am 17.8 19.1 14.1 79 2.1 CALM 0 0 0 0 1013.7 1013.6 0.0
31/01:00am 17.9 19.1 13.8 77 2.3 CALM 0 0 0 0 1013.8 1013.7 0.0
31/12:30am 18.6 19.8 13.9 74 2.7 CALM 0 0 0 0 1013.9 1013.8 0.0
31/12:00am 21.4 22.3 16.1 72 3.2 NNE 6 7 3 4 1013.8 1013.7 0.0
 
Date/Time
CST
Temp
°C
App
Temp
°C
Dew
Point
Rel
Hum
%
Delta-T
°C
Wind Press
QNH
hPa
Press
MSL
hPa
Rain
since 9 am
mm
Dir
 
Spd
km/h
Gust
km/h
Spd
kts
Gust
kts
30/11:30pm 21.7 23.0 16.2 71 3.3 NNE 4 7 2 4 1013.9 1013.8 0.0
30/11:00pm 21.1 21.7 15.2 69 3.5 NE 6 9 3 5 1013.8 1013.7 0.0
30/10:30pm 21.9 22.3 15.3 66 3.9 NE 7 9 4 5 1013.6 1013.5 0.0
30/10:00pm 22.3 23.0 14.4 61 4.6 NNE 4 6 2 3 1013.5 1013.4 0.0
30/09:30pm 22.5 22.6 13.8 58 5.1 NNE 6 6 3 3 1013.4 1013.3 0.0
30/09:00pm 23.1 22.9 13.0 53 5.8 NE 6 9 3 5 1013.2 1013.1 0.0
30/08:30pm 23.7 22.9 11.7 47 6.8 NNE 7 9 4 5 1012.8 1012.7 0.0
30/08:00pm 25.2 24.4 11.0 41 8.0 N 6 9 3 5 1012.4 1012.3 0.0
30/07:30pm 26.4 24.9 10.5 37 8.9 N 9 13 5 7 1011.8 1011.7 0.0
30/07:00pm 26.6 25.5 9.9 35 9.3 NNE 6 9 3 5 1011.5 1011.4 0.0
30/06:30pm 28.9 26.0 8.0 27 11.4 N 13 20 7 11 1011.0 1010.9 0.0
30/06:00pm 32.0 29.1 1.2 14 15.2 SSE 6 9 3 5 1010.2 1010.1 0.0
30/05:30pm 33.6 30.0 -2.2 10 16.9 ESE 7 13 4 7 1010.0 1009.9 0.0
30/05:00pm 34.1 30.3 -0.5 11 16.8 SSE 9 15 5 8 1009.8 1009.7 0.0
30/04:30pm 34.1 30.2 -1.8 10 17.1 SE 9 19 5 10 1009.8 1009.7 0.0
30/04:00pm 34.5 31.3 1.0 12 16.8 SSE 7 17 4 9 1009.8 1009.7 0.0
30/03:30pm 33.9 29.3 -0.7 11 16.8 ESE 13 19 7 10 1010.0 1009.9 0.0
30/03:00pm 33.7 29.5 -0.8 11 16.7 ESE 11 20 6 11 1010.2 1010.1 0.0
30/02:30pm 33.3 29.5 -1.1 11 16.5 ESE 9 17 5 9 1010.8 1010.7 0.0
30/02:00pm 33.7 28.2 -2.1 10 16.9 ESE 17 26 9 14 1011.3 1011.2 0.0
30/01:30pm 33.4 29.6 -1.0 11 16.5 SE 9 17 5 9 1011.8 1011.7 0.0
30/01:00pm 32.8 27.9 -0.3 12 16.0 SE 15 24 8 13 1012.6 1012.5 0.0
30/12:30pm 32.8 27.9 -0.3 12 16.0 SE 15 26 8 14 1013.3 1013.2 0.0
30/12:00pm 31.7 26.9 -0.1 13 15.3 SE 15 26 8 14 1014.1 1014.0 0.0
30/11:30am 31.8 28.4 3.8 17 14.4 ESE 11 19 6 10 1014.9 1014.8 0.0
30/11:00am 30.4 26.4 2.6 17 13.9 E 13 19 7 10 1015.5 1015.4 0.0
30/10:30am 29.1 26.2 4.6 21 12.6 ENE 9 19 5 10 1015.9 1015.8 0.0
30/10:00am 28.0 26.2 7.8 28 10.9 E 7 13 4 7 1016.1 1016.0 0.0
30/09:30am 26.6 26.4 10.3 36 9.1 W 2 6 1 3 1016.0 1015.9 0.0
30/09:00am 23.6 24.2 12.0 48 6.6 CALM 0 4 0 2 1016.1 1016.0 0.0
30/08:30am 21.5 22.2 12.1 55 5.3 CALM 0 0 0 0 1016.1 1016.0 0.0
30/08:00am 18.9 19.5 11.9 64 3.9 CALM 0 0 0 0 1015.9 1015.8 0.0
30/07:30am 16.1 16.6 11.7 75 2.4 CALM 0 0 0 0 1015.5 1015.4 0.0
30/07:00am 14.6 14.8 10.6 77 2.1 CALM 0 0 0 0 1015.2 1015.1 0.0
30/06:30am 15.8 16.0 10.6 71 2.8 CALM 0 0 0 0 1014.8 1014.7 0.0
30/06:00am 17.0 17.0 11.1 68 3.2 SSW 2 6 1 3 1014.5 1014.4 0.0
30/05:30am 16.9 16.8 12.0 73 2.7 SW 4 7 2 4 1014.2 1014.1 0.0
30/05:00am 17.3 17.1 11.8 70 3.0 SSW 4 6 2 3 1013.9 1013.8 0.0
30/04:30am 16.2 16.1 12.2 77 2.2 SW 4 4 2 2 1013.9 1013.8 0.0
30/04:00am 15.6 16.2 11.8 78 2.1 CALM 0 0 0 0 1013.9 1013.8 0.0
30/03:30am 16.1 16.7 11.9 76 2.3 CALM 0 0 0 0 1014.0 1013.9 0.0
30/03:00am 16.7 17.5 12.5 76 2.3 CALM 0 0 0 0 1014.1 1014.0 0.0
30/02:30am 17.0 17.5 11.5 70 3.0 CALM 0 0 0 0 1014.2 1014.1 0.0
30/02:00am 17.9 18.2 10.8 63 3.8 CALM 0 0 0 0 1014.4 1014.3 0.0
30/01:30am 18.8 18.1 11.4 62 4.0 ENE 6 6 3 3 1014.4 1014.3 0.0
30/01:00am 18.1 18.2 11.4 65 3.7 ENE 2 4 1 2 1014.7 1014.6 0.0
30/12:30am 19.3 18.9 11.1 59 4.5 ENE 4 6 2 3 1014.6 1014.5 0.0
30/12:00am 18.6 18.1 11.9 65 3.7 E 6 7 3 4 1014.6 1014.5 0.0
 
Date/Time
CST
Temp
°C
App
Temp
°C
Dew
Point
Rel
Hum
%
Delta-T
°C
Wind Press
QNH
hPa
Press
MSL
hPa
Rain
since 9 am
mm
Dir
 
Spd
km/h
Gust
km/h
Spd
kts
Gust
kts
29/11:30pm 18.8 18.3 11.9 64 3.8 NW 6 7 3 4 1014.5 1014.4 0.0
29/11:00pm 19.1 19.3 10.6 58 4.6 CALM 0 0 0 0 1014.2 1014.1 0.0
29/10:30pm 19.7 19.9 10.7 56 4.9 CALM 0 0 0 0 1014.2 1014.1 0.0
29/10:00pm 20.2 20.3 10.0 52 5.5 CALM 0 0 0 0 1014.2 1014.1 0.0
29/09:30pm 20.7 20.8 10.2 51 5.7 CALM 0 0 0 0 1014.0 1013.9 0.0
29/09:00pm 21.4 21.5 10.3 49 6.0 CALM 0 0 0 0 1013.8 1013.7 0.0
29/08:30pm 21.6 21.6 9.8 47 6.4 CALM 0 4 0 2 1013.4 1013.3 0.0
29/08:00pm 22.8 22.6 9.2 42 7.3 CALM 0 0 0 0 1013.1 1013.0 0.0
29/07:30pm 24.3 23.3 8.7 37 8.4 WNW 4 7 2 4 1012.8 1012.7 0.0
29/07:00pm 25.1 22.7 6.8 31 9.5 WNW 9 11 5 6 1012.4 1012.3 0.0
29/06:30pm 27.1 23.8 4.8 24 11.4 WNW 11 15 6 8 1012.0 1011.9 0.0
29/06:29pm 27.1 23.8 4.8 24 11.4 WNW 11 15 6 8 1012.0 1011.9 0.0
29/06:00pm 32.2 29.9 -2.0 11 16.0 CALM 0 2 0 1 1011.6 1011.5 0.0
29/05:30pm 32.8 29.5 -4.2 9 16.8 NE 4 6 2 3 1011.3 1011.2 0.0
29/05:00pm 33.1 29.4 -2.6 10 16.7 N 7 13 4 7 1011.1 1011.0 0.0

Other Formats:

Comma delimited format used in spreadsheet applications
http://www.bom.gov.au/fwo/IDD60801/IDD60801.94110.axf

JavaScript Object Notation format (JSON) in row-major order
http://www.bom.gov.au/fwo/IDD60801/IDD60801.94110.json